createdAt,value
2023-03-11T00:01:00.607Z,3.00
2023-03-11T00:03:23.444Z,3.60
2023-03-11T00:05:49.276Z,3.07
2023-03-11T00:08:16.588Z,3.30
2023-03-11T00:10:40.779Z,3.60
2023-03-11T00:13:03.530Z,2.80
2023-03-11T00:15:58.028Z,3.27
2023-03-11T00:18:20.734Z,3.60
2023-03-11T00:20:44.106Z,3.10
2023-03-11T00:23:18.618Z,3.87
2023-03-11T00:25:44.434Z,3.13
2023-03-11T00:28:07.494Z,3.30
2023-03-11T00:30:30.265Z,3.23
2023-03-11T00:32:53.686Z,3.23
2023-03-11T00:35:17.712Z,4.00
2023-03-11T00:37:40.275Z,3.47
2023-03-11T00:40:02.900Z,3.93
2023-03-11T00:42:25.203Z,4.10
2023-03-11T00:44:47.783Z,4.17
2023-03-11T00:47:11.694Z,3.33
2023-03-11T00:49:34.090Z,3.13
2023-03-11T00:51:56.444Z,3.63
2023-03-11T00:54:18.898Z,3.67
2023-03-11T00:56:41.864Z,3.80
2023-03-11T00:59:04.658Z,4.10
2023-03-11T01:01:26.979Z,3.77
2023-03-11T01:03:49.323Z,3.53
2023-03-11T01:06:13.002Z,3.90
2023-03-11T01:08:35.510Z,4.07
2023-03-11T01:10:58.539Z,3.73
2023-03-11T01:13:21.222Z,3.47
2023-03-11T01:15:44.216Z,3.47
2023-03-11T01:18:07.100Z,3.33
2023-03-11T01:20:29.700Z,3.80
2023-03-11T01:22:52.199Z,4.00
2023-03-11T01:25:15.491Z,3.30
2023-03-11T01:27:37.962Z,3.70
2023-03-11T01:30:00.281Z,4.53
2023-03-11T01:32:22.701Z,4.00
2023-03-11T01:34:45.019Z,3.30
2023-03-11T01:37:07.351Z,3.93
2023-03-11T01:39:29.702Z,3.53
2023-03-11T01:41:53.124Z,3.70
2023-03-11T01:44:15.526Z,3.57
2023-03-11T01:47:02.373Z,3.43
2023-03-11T01:49:28.006Z,4.00
2023-03-11T01:51:52.070Z,4.17
2023-03-11T01:54:16.167Z,3.77
2023-03-11T01:56:42.125Z,3.33
2023-03-11T01:59:04.600Z,3.73
2023-03-11T02:01:27.137Z,3.70
2023-03-11T02:03:50.182Z,3.83
2023-03-11T02:06:17.086Z,3.97
2023-03-11T02:08:40.075Z,4.07
2023-03-11T02:11:05.759Z,4.20
2023-03-11T02:13:37.193Z,4.00
2023-03-11T02:16:00.635Z,3.90
2023-03-11T02:18:23.182Z,4.20
2023-03-11T02:21:02.517Z,4.80
2023-03-11T02:23:28.209Z,3.77
2023-03-11T02:25:56.835Z,4.80
2023-03-11T02:28:23.571Z,4.60
2023-03-11T02:30:46.688Z,4.53
2023-03-11T02:33:10.099Z,4.03
2023-03-11T02:35:32.648Z,4.13
2023-03-11T02:37:55.968Z,4.03
2023-03-11T02:40:26.923Z,4.50
2023-03-11T02:42:53.175Z,4.53
2023-03-11T02:45:18.274Z,3.90
2023-03-11T02:47:41.471Z,4.23
2023-03-11T02:50:06.644Z,4.40
2023-03-11T02:52:29.726Z,4.43
2023-03-11T02:54:54.332Z,4.17
2023-03-11T02:57:16.908Z,4.20
2023-03-11T02:59:42.491Z,4.20
2023-03-11T03:02:05.002Z,4.40
2023-03-11T03:04:28.294Z,4.20
2023-03-11T03:06:51.986Z,4.60
2023-03-11T03:09:14.724Z,4.70
2023-03-11T03:11:39.560Z,4.83
2023-03-11T03:14:01.943Z,4.73
2023-03-11T03:16:24.417Z,4.47
2023-03-11T03:18:46.861Z,4.47
2023-03-11T03:21:10.096Z,4.27
2023-03-11T03:23:35.325Z,4.67
2023-03-11T03:25:57.926Z,5.07
2023-03-11T03:28:20.666Z,5.03
2023-03-11T03:30:43.452Z,4.93
2023-03-11T03:33:07.295Z,4.80
2023-03-11T03:35:29.910Z,4.90
2023-03-11T03:38:00.220Z,5.13
2023-03-11T03:40:25.928Z,5.20
2023-03-11T03:42:56.180Z,5.03
2023-03-11T03:45:19.649Z,5.07
2023-03-11T03:47:42.917Z,4.37
2023-03-11T03:50:07.310Z,4.83
2023-03-11T03:52:29.984Z,5.30
2023-03-11T03:54:56.192Z,5.37
2023-03-11T03:57:21.402Z,5.87
2023-03-11T03:59:44.246Z,4.77
2023-03-11T04:02:10.327Z,4.67
2023-03-11T04:04:33.156Z,5.10
2023-03-11T04:06:55.822Z,4.40
2023-03-11T04:09:19.396Z,4.13
2023-03-11T04:11:46.532Z,4.30
2023-03-11T04:14:13.560Z,5.83
2023-03-11T04:16:44.647Z,4.97
2023-03-11T04:19:10.132Z,4.60
2023-03-11T04:22:11.896Z,4.80
2023-03-11T04:24:34.764Z,4.63
2023-03-11T04:26:57.813Z,4.97
2023-03-11T04:29:20.506Z,4.43
2023-03-11T04:31:46.285Z,5.23
2023-03-11T04:34:11.591Z,5.00
2023-03-11T04:36:35.192Z,4.90
2023-03-11T04:38:58.072Z,6.00
2023-03-11T04:41:22.488Z,5.43
2023-03-11T04:43:48.339Z,4.93
2023-03-11T04:46:11.136Z,4.33
2023-03-11T04:48:35.782Z,5.47
2023-03-11T04:50:58.627Z,4.10
2023-03-11T04:53:21.454Z,5.13
2023-03-11T04:55:44.386Z,5.40
2023-03-11T04:58:06.873Z,5.27
2023-03-11T05:00:30.995Z,4.93
2023-03-11T05:03:02.927Z,4.57
2023-03-11T05:05:26.705Z,4.93
2023-03-11T05:07:52.262Z,4.77
2023-03-11T05:10:25.228Z,4.70
2023-03-11T05:12:51.994Z,4.40
2023-03-11T05:15:16.223Z,4.80
2023-03-11T05:17:38.917Z,4.67
2023-03-11T05:20:05.014Z,5.37
2023-03-11T05:22:28.062Z,4.77
2023-03-11T05:24:50.510Z,5.07
2023-03-11T05:27:18.246Z,4.40
2023-03-11T05:29:43.857Z,4.37
2023-03-11T05:32:07.913Z,5.60
2023-03-11T05:34:30.762Z,5.30
2023-03-11T05:36:53.609Z,4.87
2023-03-11T05:39:16.023Z,4.60
2023-03-11T05:41:38.747Z,5.37
2023-03-11T05:44:01.633Z,5.17
2023-03-11T05:46:24.379Z,5.10
2023-03-11T05:48:50.382Z,5.27
2023-03-11T05:51:13.522Z,4.73
2023-03-11T05:53:37.421Z,5.40
2023-03-11T05:56:00.662Z,4.87
2023-03-11T05:58:24.567Z,4.70
2023-03-11T06:00:47.227Z,4.80
2023-03-11T06:03:09.492Z,4.20
2023-03-11T06:05:31.881Z,4.67
2023-03-11T06:07:54.610Z,4.30
2023-03-11T06:10:18.692Z,4.27
2023-03-11T06:12:41.999Z,4.60
2023-03-11T06:15:13.206Z,4.50
2023-03-11T06:17:36.706Z,4.80
2023-03-11T06:19:58.958Z,4.87
2023-03-11T06:22:21.542Z,4.87
2023-03-11T06:24:44.393Z,4.90
2023-03-11T06:27:09.220Z,4.43
2023-03-11T06:29:32.549Z,4.60
2023-03-11T06:35:00.992Z,5.40
2023-03-11T06:37:25.686Z,5.60
2023-03-11T06:39:52.718Z,4.60
2023-03-11T06:56:57.613Z,4.73
2023-03-11T06:59:20.923Z,4.70
2023-03-11T07:01:43.812Z,5.83
2023-03-11T07:04:06.369Z,4.60
2023-03-11T07:06:31.039Z,5.07
2023-03-11T07:08:58.859Z,5.40
2023-03-11T07:11:25.340Z,5.00
2023-03-11T07:13:50.595Z,4.80
2023-03-11T07:16:15.721Z,4.90
2023-03-11T07:18:39.449Z,4.97
2023-03-11T07:21:06.384Z,5.33
2023-03-11T07:23:33.275Z,5.53
2023-03-11T07:25:55.821Z,5.33
2023-03-11T07:28:18.847Z,5.33
2023-03-11T07:30:41.539Z,5.03
2023-03-11T07:33:03.962Z,5.47
2023-03-11T07:35:26.803Z,5.37
2023-03-11T07:37:49.295Z,5.07
2023-03-11T07:40:11.904Z,5.00
2023-03-11T07:42:36.046Z,4.37
2023-03-11T07:44:58.424Z,5.90
2023-03-11T07:47:21.012Z,4.40
2023-03-11T07:49:50.558Z,4.20
2023-03-11T07:52:13.190Z,3.93
2023-03-11T07:54:35.732Z,3.40
2023-03-11T07:56:58.796Z,3.50
2023-03-11T07:59:21.136Z,3.53
2023-03-11T08:01:47.121Z,3.13
2023-03-11T08:04:14.214Z,3.10
2023-03-11T08:06:37.756Z,2.77
2023-03-11T08:09:01.065Z,2.80
2023-03-11T08:11:23.546Z,3.37
2023-03-11T08:13:46.600Z,3.37
2023-03-11T08:16:09.359Z,3.47
2023-03-11T08:18:31.676Z,3.47
2023-03-11T08:20:55.349Z,3.20
2023-03-11T08:23:17.521Z,3.43
2023-03-11T08:25:40.757Z,3.20
2023-03-11T08:28:03.004Z,2.77
2023-03-11T08:30:27.931Z,3.10
2023-03-11T08:32:50.365Z,4.13
2023-03-11T08:35:12.664Z,3.60
2023-03-11T08:37:35.004Z,3.60
2023-03-11T08:39:57.205Z,3.43
2023-03-11T08:42:19.650Z,3.80
2023-03-11T08:44:41.913Z,3.67
2023-03-11T08:47:04.115Z,3.70
2023-03-11T08:49:26.385Z,3.37
2023-03-11T08:51:48.630Z,2.70
2023-03-11T08:54:10.930Z,2.57
2023-03-11T08:56:33.150Z,2.53
2023-03-11T08:58:55.369Z,2.97
2023-03-11T09:01:18.216Z,2.80
2023-03-11T09:03:40.464Z,2.73
2023-03-11T09:06:04.072Z,2.87
2023-03-11T09:08:27.014Z,2.80
2023-03-11T09:10:49.394Z,2.93
2023-03-11T09:13:11.581Z,3.03
2023-03-11T09:15:34.807Z,2.67
2023-03-11T09:17:57.144Z,3.20
2023-03-11T09:20:19.394Z,4.30
2023-03-11T09:22:41.901Z,5.33
2023-03-11T09:25:04.154Z,4.03
2023-03-11T09:27:26.402Z,7.83
2023-03-11T09:29:48.846Z,2.77
2023-03-11T09:32:13.744Z,2.27
2023-03-11T09:34:36.088Z,2.10
2023-03-11T09:37:01.313Z,2.40
2023-03-11T09:39:23.598Z,3.20
2023-03-11T09:41:58.802Z,2.00
2023-03-11T09:44:28.821Z,2.30
2023-03-11T09:47:04.873Z,2.00
2023-03-11T09:49:33.370Z,2.10
2023-03-11T09:52:09.733Z,2.00
2023-03-11T09:54:35.802Z,2.03
2023-03-11T09:56:58.099Z,1.57
2023-03-11T09:59:27.424Z,1.70
2023-03-11T10:01:50.920Z,2.27
2023-03-11T10:04:22.859Z,2.00
2023-03-11T10:06:46.771Z,1.77
2023-03-11T10:09:28.142Z,2.63
2023-03-11T10:12:08.804Z,2.93
2023-03-11T10:14:45.592Z,3.10
2023-03-11T10:17:10.923Z,2.00
2023-03-11T10:19:39.498Z,1.93
2023-03-11T10:22:19.956Z,2.20
2023-03-11T10:24:45.980Z,2.23
2023-03-11T10:27:15.091Z,1.70
2023-03-11T10:29:50.963Z,1.73
2023-03-11T10:32:19.774Z,1.70
2023-03-11T10:34:52.425Z,1.87
2023-03-11T10:37:17.698Z,1.90
2023-03-11T10:39:40.477Z,2.57
2023-03-11T10:42:04.096Z,1.70
2023-03-11T10:44:30.277Z,1.87
2023-03-11T10:46:54.073Z,1.60
2023-03-11T10:49:17.014Z,1.70
2023-03-11T10:51:39.614Z,1.80
2023-03-11T10:54:03.626Z,1.60
2023-03-11T10:56:29.034Z,1.90
2023-03-11T10:58:51.432Z,2.27
2023-03-11T11:01:18.744Z,1.80
2023-03-11T11:03:45.257Z,1.80
2023-03-11T11:06:08.514Z,1.80
2023-03-11T11:08:31.135Z,2.10
2023-03-11T11:11:02.805Z,1.67
2023-03-11T11:13:26.379Z,1.53
2023-03-11T11:16:04.002Z,2.03
2023-03-11T11:18:39.807Z,2.00
2023-03-11T11:21:09.516Z,2.03
2023-03-11T11:23:41.322Z,1.93
2023-03-11T11:26:05.783Z,2.23
2023-03-11T11:28:29.176Z,3.43
2023-03-11T11:30:58.972Z,1.80
2023-03-11T11:33:54.050Z,1.93
2023-03-11T11:36:19.569Z,1.60
2023-03-11T11:38:45.806Z,1.70
2023-03-11T11:41:10.478Z,2.00
2023-03-11T11:43:45.298Z,1.63
2023-03-11T11:46:12.025Z,1.93
2023-03-11T11:48:44.628Z,1.80
2023-03-11T11:51:15.516Z,1.70
2023-03-11T11:53:43.006Z,2.03
2023-03-11T11:56:05.579Z,1.80
2023-03-11T11:58:29.023Z,1.60
2023-03-11T12:00:51.561Z,1.83
2023-03-11T12:03:17.103Z,1.60
2023-03-11T12:06:00.492Z,1.70
2023-03-11T12:08:48.265Z,1.77
2023-03-11T12:11:18.947Z,1.47
2023-03-11T12:13:55.803Z,1.67
2023-03-11T12:16:18.106Z,1.67
2023-03-11T12:18:43.820Z,1.70
2023-03-11T12:21:27.482Z,1.90
2023-03-11T12:24:16.154Z,2.20
2023-03-11T12:26:41.579Z,2.17
2023-03-11T12:29:15.719Z,2.50
2023-03-11T12:31:40.158Z,1.93
2023-03-11T12:34:03.904Z,2.17
2023-03-11T12:36:37.522Z,2.40
2023-03-11T12:39:00.817Z,2.00
2023-03-11T12:41:31.205Z,2.50
2023-03-11T12:43:53.435Z,2.00
2023-03-11T12:46:19.191Z,2.10
2023-03-11T12:48:45.571Z,2.23
2023-03-11T12:51:07.968Z,2.20
2023-03-11T12:53:49.629Z,2.03
2023-03-11T12:56:11.950Z,2.20
2023-03-11T12:58:53.867Z,1.97
2023-03-11T13:01:22.096Z,2.43
2023-03-11T13:03:51.612Z,2.07
2023-03-11T13:06:23.410Z,2.50
2023-03-11T13:08:47.524Z,1.60
2023-03-11T13:11:30.274Z,1.90
2023-03-11T13:13:52.529Z,1.90
2023-03-11T13:16:14.818Z,2.10
2023-03-11T13:18:37.328Z,1.47
2023-03-11T13:21:05.605Z,1.93
2023-03-11T13:23:30.683Z,1.93
2023-03-11T13:25:55.714Z,2.50
2023-03-11T13:28:36.938Z,2.40
2023-03-11T13:30:59.143Z,2.17
2023-03-11T13:33:44.507Z,2.20
2023-03-11T13:36:14.133Z,2.37
2023-03-11T13:38:56.631Z,2.20
2023-03-11T13:41:23.285Z,1.70
2023-03-11T13:43:49.795Z,2.37
2023-03-11T13:46:28.723Z,2.07
2023-03-11T13:48:54.301Z,2.10
2023-03-11T13:51:35.703Z,1.80
2023-03-11T13:54:03.217Z,1.73
2023-03-11T13:56:27.762Z,1.87
2023-03-11T13:58:50.064Z,2.23
2023-03-11T14:01:16.359Z,2.00
2023-03-11T14:03:41.898Z,2.10
2023-03-11T14:06:04.167Z,1.63
2023-03-11T14:08:34.891Z,2.00
2023-03-11T14:11:01.454Z,1.93
2023-03-11T14:13:24.586Z,1.40
2023-03-11T14:15:52.030Z,1.83
2023-03-11T14:18:41.779Z,1.90
2023-03-11T14:21:14.661Z,1.87
2023-03-11T14:23:40.779Z,2.07
2023-03-11T14:26:04.725Z,2.30
2023-03-11T14:28:28.099Z,1.60
2023-03-11T14:30:57.538Z,1.70
2023-03-11T14:33:22.472Z,1.63
2023-03-11T14:35:52.758Z,1.90
2023-03-11T14:38:25.676Z,1.73
2023-03-11T14:40:51.518Z,2.00
2023-03-11T14:43:14.634Z,1.70
2023-03-11T14:45:39.470Z,2.03
2023-03-11T14:48:07.656Z,2.30
2023-03-11T14:50:32.062Z,2.27
2023-03-11T14:52:54.368Z,1.93
2023-03-11T14:55:20.817Z,2.30
2023-03-11T14:57:56.982Z,1.97
2023-03-11T15:00:24.048Z,2.03
2023-03-11T15:02:53.661Z,1.70
2023-03-11T15:05:22.186Z,2.70
2023-03-11T15:07:45.830Z,2.20
2023-03-11T15:10:09.855Z,2.93
2023-03-11T15:12:39.507Z,3.53
2023-03-11T15:15:21.359Z,1.97
2023-03-11T15:17:52.391Z,2.13
2023-03-11T15:20:26.788Z,1.90
2023-03-11T15:22:58.252Z,1.83
2023-03-11T15:25:20.600Z,2.00
2023-03-11T15:27:42.920Z,1.90
2023-03-11T15:30:25.730Z,2.10
2023-03-11T15:32:51.943Z,1.63
2023-03-11T15:35:17.432Z,1.50
2023-03-11T15:37:40.478Z,2.33
2023-03-11T15:40:12.672Z,2.03
2023-03-11T15:42:35.049Z,2.50
2023-03-11T15:45:02.091Z,2.37
2023-03-11T15:47:24.816Z,2.10
2023-03-11T15:49:47.097Z,2.07
2023-03-11T15:52:09.584Z,1.77
2023-03-11T15:54:31.836Z,1.97
2023-03-11T15:56:55.194Z,1.80
2023-03-11T15:59:18.191Z,2.03
2023-03-11T16:01:40.503Z,1.83
2023-03-11T16:04:02.873Z,1.80
2023-03-11T16:06:25.457Z,2.10
2023-03-11T16:08:47.730Z,2.07
2023-03-11T16:11:10.981Z,1.70
2023-03-11T16:13:33.236Z,1.93
2023-03-11T16:15:55.554Z,1.80
2023-03-11T16:18:17.784Z,2.33
2023-03-11T16:20:50.976Z,3.80
2023-03-11T16:23:27.042Z,9.70
2023-03-11T16:25:49.577Z,3.57
2023-03-11T16:28:13.483Z,1.80
2023-03-11T16:30:35.920Z,2.20
2023-03-11T16:32:58.339Z,2.03
2023-03-11T16:35:20.897Z,1.97
2023-03-11T16:37:43.678Z,1.90
2023-03-11T16:40:07.154Z,1.97
2023-03-11T16:42:29.510Z,1.80
2023-03-11T16:44:51.721Z,2.20
2023-03-11T16:47:13.961Z,1.90
2023-03-11T16:49:36.265Z,2.00
2023-03-11T16:51:58.464Z,2.00
2023-03-11T16:54:20.821Z,1.77
2023-03-11T16:56:43.110Z,1.80
2023-03-11T16:59:05.365Z,2.20
2023-03-11T17:01:27.676Z,2.07
2023-03-11T17:03:52.955Z,1.77
2023-03-11T17:06:15.464Z,2.00
2023-03-11T17:08:37.752Z,2.10
2023-03-11T17:11:00.010Z,2.10
2023-03-11T17:13:22.693Z,11.10
2023-03-11T17:15:45.725Z,3.83
2023-03-11T17:18:08.026Z,10.77
2023-03-11T17:20:30.420Z,7.47
2023-03-11T17:22:52.757Z,3.00
2023-03-11T17:25:14.950Z,3.50
2023-03-11T17:27:37.189Z,20.33
2023-03-11T17:30:00.250Z,14.83
2023-03-11T17:32:22.538Z,4.90
2023-03-11T17:34:44.870Z,2.57
2023-03-11T17:37:09.220Z,2.23
2023-03-11T17:39:34.801Z,2.60
2023-03-11T17:41:57.427Z,2.43
2023-03-11T17:44:20.798Z,2.50
2023-03-11T17:46:43.293Z,2.87
2023-03-11T17:49:08.749Z,6.80
2023-03-11T17:51:32.509Z,9.83
2023-03-11T17:53:57.096Z,9.80
2023-03-11T17:56:20.581Z,10.77
2023-03-11T17:58:43.032Z,9.17
2023-03-11T18:01:10.053Z,5.30
2023-03-11T18:03:32.477Z,4.40
2023-03-11T18:05:59.320Z,3.30
2023-03-11T18:08:29.254Z,3.60
2023-03-11T18:10:57.714Z,4.97
2023-03-11T18:13:22.919Z,4.30
2023-03-11T18:15:45.368Z,3.97
2023-03-11T18:18:07.842Z,7.63
2023-03-11T18:20:30.295Z,5.20
2023-03-11T18:22:52.778Z,4.43
2023-03-11T18:25:15.781Z,3.47
2023-03-11T18:27:38.374Z,20.03
2023-03-11T18:30:02.046Z,8.73
2023-03-11T18:32:24.733Z,6.40
2023-03-11T18:34:51.267Z,4.53
2023-03-11T18:37:14.021Z,4.37
2023-03-11T18:39:36.808Z,3.97
2023-03-11T18:41:59.560Z,3.93
2023-03-11T18:44:22.202Z,3.80
2023-03-11T18:46:44.616Z,3.80
2023-03-11T18:49:06.976Z,3.93
2023-03-11T18:51:30.564Z,4.67
2023-03-11T18:53:53.083Z,5.00
2023-03-11T18:56:16.957Z,4.73
2023-03-11T18:58:39.324Z,5.03
2023-03-11T19:01:06.830Z,4.53
2023-03-11T19:03:29.272Z,4.10
2023-03-11T19:05:55.064Z,6.30
2023-03-11T19:08:17.565Z,6.70
2023-03-11T19:10:42.054Z,5.80
2023-03-11T19:13:04.762Z,6.27
2023-03-11T19:15:27.240Z,5.77
2023-03-11T19:18:05.820Z,5.63
2023-03-11T19:20:30.552Z,4.83
2023-03-11T19:22:53.976Z,6.00
2023-03-11T19:25:16.377Z,5.93
2023-03-11T19:27:40.281Z,6.30
2023-03-11T19:30:02.789Z,6.23
2023-03-11T19:32:25.204Z,5.83
2023-03-11T19:34:47.973Z,5.30
2023-03-11T19:37:10.418Z,5.83
2023-03-11T19:39:32.925Z,4.53
2023-03-11T19:41:59.133Z,4.33
2023-03-11T19:44:22.435Z,5.07
2023-03-11T19:46:47.601Z,7.73
2023-03-11T19:49:12.494Z,7.00
2023-03-11T19:51:50.106Z,8.77
2023-03-11T19:54:24.310Z,7.57
2023-03-11T19:56:50.311Z,9.50
2023-03-11T19:59:13.393Z,7.80
2023-03-11T20:01:36.064Z,6.60
2023-03-11T20:03:58.551Z,6.03
2023-03-11T20:06:22.886Z,5.83
2023-03-11T20:08:54.095Z,4.83
2023-03-11T20:11:19.883Z,4.80
2023-03-11T20:13:52.003Z,4.60
2023-03-11T20:16:24.287Z,4.03
2023-03-11T20:18:53.245Z,4.83
2023-03-11T20:23:56.484Z,4.33
2023-03-11T20:27:11.039Z,4.80
2023-03-11T20:32:54.586Z,5.70
2023-03-11T20:39:13.665Z,5.37
2023-03-11T20:45:05.299Z,4.27
2023-03-11T20:53:08.482Z,5.20
2023-03-11T20:55:39.717Z,4.97
2023-03-11T20:58:02.572Z,5.63
2023-03-11T21:03:31.522Z,4.40
2023-03-11T21:05:54.135Z,5.57
2023-03-11T21:08:26.266Z,4.60
2023-03-11T21:10:49.264Z,4.57
2023-03-11T21:16:24.707Z,5.33
2023-03-11T21:19:13.721Z,7.50
2023-03-11T21:21:44.043Z,6.00
2023-03-11T21:26:46.147Z,4.33
2023-03-11T21:29:17.961Z,4.10
2023-03-11T21:31:41.357Z,4.37
2023-03-11T21:34:12.376Z,4.87
2023-03-11T21:39:37.995Z,4.60
2023-03-11T21:42:00.590Z,4.67
2023-03-11T21:44:23.113Z,4.63
2023-03-11T21:46:45.643Z,3.97
2023-03-11T21:49:08.326Z,4.57
2023-03-11T21:51:31.644Z,4.50
2023-03-11T21:53:54.286Z,4.80
2023-03-11T21:56:17.243Z,4.67
2023-03-11T21:59:10.316Z,5.33
2023-03-11T22:01:23.515Z,5.90
2023-03-11T22:03:53.464Z,6.03
2023-03-11T22:06:16.107Z,6.40
2023-03-11T22:11:18.510Z,8.37
2023-03-11T22:13:41.079Z,8.83
2023-03-11T22:16:04.732Z,7.97
2023-03-11T22:18:52.891Z,7.07
2023-03-11T22:21:16.518Z,6.67
2023-03-11T22:23:39.340Z,6.50
2023-03-11T22:26:02.348Z,6.10
2023-03-11T22:28:24.947Z,6.67
2023-03-11T22:30:47.160Z,5.83
2023-03-11T22:33:09.657Z,5.90
2023-03-11T22:35:31.952Z,5.83
2023-03-11T22:37:54.275Z,5.40
2023-03-11T22:40:16.616Z,5.90
2023-03-11T22:42:39.022Z,5.97
2023-03-11T22:45:01.416Z,6.43
2023-03-11T22:47:23.880Z,5.43
2023-03-11T22:49:46.227Z,5.37
2023-03-11T22:52:08.479Z,5.20
2023-03-11T22:54:30.847Z,6.00
2023-03-11T22:56:53.202Z,5.10
2023-03-11T22:59:15.494Z,4.77
2023-03-11T23:01:37.719Z,4.60
2023-03-11T23:04:00.013Z,5.10
2023-03-11T23:06:22.311Z,6.07
2023-03-11T23:08:45.153Z,5.73
2023-03-11T23:11:09.097Z,6.17
2023-03-11T23:13:32.285Z,5.73
2023-03-11T23:15:54.597Z,6.00
2023-03-11T23:18:17.040Z,6.07
2023-03-11T23:20:40.179Z,7.10
2023-03-11T23:23:02.617Z,11.93
2023-03-11T23:25:24.948Z,12.90
2023-03-11T23:27:47.419Z,13.17
2023-03-11T23:30:13.261Z,11.63
2023-03-11T23:32:39.001Z,8.87
2023-03-11T23:35:01.263Z,7.27
2023-03-11T23:37:23.942Z,6.17
2023-03-11T23:39:46.165Z,6.00
2023-03-11T23:42:22.604Z,6.50
2023-03-11T23:44:47.587Z,6.43
2023-03-11T23:47:09.783Z,6.07
2023-03-11T23:49:32.017Z,6.63
2023-03-11T23:51:54.348Z,5.97
2023-03-11T23:54:16.584Z,6.53
2023-03-11T23:56:38.894Z,6.57
2023-03-11T23:59:01.183Z,6.43
